createdAt,value
2018-03-24T00:01:27.443Z,11.00
2018-03-24T00:03:55.604Z,8.23
2018-03-24T00:06:23.809Z,10.50
2018-03-24T00:08:51.983Z,10.00
2018-03-24T00:11:20.145Z,7.10
2018-03-24T00:13:48.316Z,7.90
2018-03-24T00:16:16.496Z,9.27
2018-03-24T00:18:44.650Z,7.43
2018-03-24T00:21:12.811Z,6.37
2018-03-24T00:23:40.986Z,9.20
2018-03-24T00:26:09.149Z,8.40
2018-03-24T00:28:38.092Z,7.57
2018-03-24T00:31:06.290Z,7.40
2018-03-24T00:33:34.464Z,7.77
2018-03-24T00:36:02.677Z,6.67
2018-03-24T00:38:30.851Z,14.00
2018-03-24T00:40:59.038Z,12.40
2018-03-24T00:43:27.208Z,12.90
2018-03-24T00:45:55.375Z,8.37
2018-03-24T00:48:24.304Z,5.90
2018-03-24T00:50:52.593Z,7.47
2018-03-24T00:53:20.789Z,9.00
2018-03-24T00:55:48.951Z,22.20
2018-03-24T00:58:17.142Z,13.13
2018-03-24T01:00:45.342Z,7.20
2018-03-24T01:03:13.506Z,9.23
2018-03-24T01:05:42.444Z,9.97
2018-03-24T01:08:10.647Z,6.17
2018-03-24T01:10:38.822Z,8.20
2018-03-24T01:13:07.011Z,9.10
2018-03-24T01:15:35.171Z,6.80
2018-03-24T01:18:03.336Z,8.30
2018-03-24T01:20:31.514Z,6.87
2018-03-24T01:22:59.715Z,6.40
2018-03-24T01:25:28.641Z,7.70
2018-03-24T01:27:56.834Z,10.00
2018-03-24T01:30:25.012Z,8.53
2018-03-24T01:32:53.178Z,6.13
2018-03-24T01:35:21.361Z,5.97
2018-03-24T01:37:49.526Z,8.03
2018-03-24T01:40:17.703Z,6.40
2018-03-24T01:42:45.873Z,6.57
2018-03-24T01:45:14.058Z,6.20
2018-03-24T01:47:42.239Z,10.33
2018-03-24T01:50:10.396Z,5.17
2018-03-24T01:52:38.549Z,9.37
2018-03-24T01:55:06.702Z,7.67
2018-03-24T01:57:35.645Z,9.83
2018-03-24T02:00:03.822Z,7.27
2018-03-24T02:02:31.974Z,9.47
2018-03-24T02:05:00.144Z,7.90
2018-03-24T02:07:28.301Z,7.27
2018-03-24T02:09:57.230Z,8.87
2018-03-24T02:12:25.382Z,7.00
2018-03-24T02:14:53.537Z,6.27
2018-03-24T02:17:22.468Z,6.30
2018-03-24T02:19:50.757Z,6.37
2018-03-24T02:22:18.942Z,6.83
2018-03-24T02:24:54.606Z,6.10
2018-03-24T02:27:22.761Z,5.73
2018-03-24T02:29:50.968Z,5.10
2018-03-24T02:32:19.132Z,8.03
2018-03-24T02:34:47.294Z,6.10
2018-03-24T02:37:15.464Z,7.47
2018-03-24T02:39:43.672Z,5.67
2018-03-24T02:42:12.596Z,5.97
2018-03-24T02:44:40.760Z,5.17
2018-03-24T02:47:08.967Z,7.40
2018-03-24T02:49:37.116Z,7.10
2018-03-24T02:52:05.285Z,10.47
2018-03-24T02:54:33.443Z,7.33
2018-03-24T02:57:02.367Z,5.57
2018-03-24T02:59:30.548Z,7.00
2018-03-24T03:01:58.736Z,5.33
2018-03-24T03:04:26.901Z,7.80
2018-03-24T03:06:55.066Z,6.03
2018-03-24T03:09:23.247Z,6.63
2018-03-24T03:11:51.403Z,5.40
2018-03-24T03:14:19.570Z,6.07
2018-03-24T03:16:47.754Z,6.40
2018-03-24T03:19:15.925Z,6.90
2018-03-24T03:21:52.834Z,7.53
2018-03-24T03:24:21.755Z,7.47
2018-03-24T03:26:49.918Z,6.67
2018-03-24T03:29:18.090Z,6.60
2018-03-24T03:31:49.048Z,6.70
2018-03-24T03:34:17.226Z,7.60
2018-03-24T03:36:45.418Z,6.27
2018-03-24T03:39:14.341Z,8.40
2018-03-24T03:41:42.494Z,4.87
2018-03-24T03:44:10.655Z,6.50
2018-03-24T03:46:39.570Z,5.03
2018-03-24T03:49:07.725Z,10.37
2018-03-24T03:51:36.648Z,5.93
2018-03-24T03:54:04.838Z,5.73
2018-03-24T03:56:32.999Z,6.77
2018-03-24T03:59:01.163Z,6.50
2018-03-24T04:01:29.334Z,6.80
2018-03-24T04:03:57.491Z,5.67
2018-03-24T04:06:26.455Z,5.93
2018-03-24T04:08:54.614Z,6.93
2018-03-24T04:11:22.783Z,7.03
2018-03-24T04:13:50.937Z,7.47
2018-03-24T04:16:19.098Z,8.10
2018-03-24T04:18:47.257Z,7.97
2018-03-24T04:21:15.417Z,7.53
2018-03-24T04:23:44.347Z,7.20
2018-03-24T04:26:12.549Z,5.40
2018-03-24T04:28:40.736Z,5.93
2018-03-24T04:31:08.913Z,7.00
2018-03-24T04:33:37.098Z,6.70
2018-03-24T04:36:05.259Z,6.77
2018-03-24T04:38:33.410Z,8.37
2018-03-24T04:41:01.572Z,6.40
2018-03-24T04:43:29.730Z,5.90
2018-03-24T04:45:57.901Z,8.50
2018-03-24T04:48:26.064Z,6.83
2018-03-24T04:50:54.225Z,7.00
2018-03-24T04:53:23.161Z,6.87
2018-03-24T04:55:51.319Z,5.07
2018-03-24T04:58:19.485Z,7.40
2018-03-24T05:00:47.684Z,8.13
2018-03-24T05:03:15.846Z,6.03
2018-03-24T05:05:44.016Z,6.63
2018-03-24T05:08:12.191Z,10.27
2018-03-24T05:10:40.356Z,7.20
2018-03-24T05:13:08.514Z,12.00
2018-03-24T05:15:37.468Z,6.97
2018-03-24T05:18:05.634Z,7.13
2018-03-24T05:20:33.792Z,7.17
2018-03-24T05:23:01.972Z,6.00
2018-03-24T05:25:30.154Z,8.53
2018-03-24T05:27:58.329Z,10.43
2018-03-24T05:30:26.503Z,6.13
2018-03-24T05:32:54.671Z,10.20
2018-03-24T05:35:22.824Z,7.10
2018-03-24T05:37:50.992Z,7.07
2018-03-24T05:40:19.160Z,10.73
2018-03-24T05:42:48.106Z,9.70
2018-03-24T05:45:16.270Z,7.13
2018-03-24T05:47:44.437Z,6.80
2018-03-24T05:50:12.614Z,8.30
2018-03-24T05:52:40.772Z,8.43
2018-03-24T05:55:08.943Z,8.90
2018-03-24T05:57:37.112Z,6.43
2018-03-24T06:00:05.301Z,7.47
2018-03-24T06:02:33.481Z,7.57
2018-03-24T06:05:01.635Z,8.07
2018-03-24T06:07:29.798Z,7.10
2018-03-24T06:09:58.731Z,7.73
2018-03-24T06:12:26.902Z,7.50
2018-03-24T06:14:55.102Z,7.00
2018-03-24T06:17:23.277Z,12.27
2018-03-24T06:19:51.430Z,8.40
2018-03-24T06:22:19.592Z,9.77
2018-03-24T06:24:47.744Z,7.73
2018-03-24T06:27:15.914Z,9.70
2018-03-24T06:29:44.843Z,12.70
2018-03-24T06:32:13.055Z,9.70
2018-03-24T06:34:41.242Z,11.90
2018-03-24T06:37:17.727Z,10.93
2018-03-24T06:39:45.933Z,11.63
2018-03-24T06:42:14.082Z,9.10
2018-03-24T06:44:42.405Z,10.53
2018-03-24T06:47:10.562Z,6.60
2018-03-24T06:49:38.714Z,9.73
2018-03-24T06:52:06.881Z,10.10
2018-03-24T06:54:35.074Z,8.43
2018-03-24T06:57:03.232Z,10.50
2018-03-24T06:59:31.398Z,9.97
2018-03-24T07:01:59.554Z,9.77
2018-03-24T07:04:28.496Z,13.50
2018-03-24T07:06:56.666Z,7.73
2018-03-24T07:09:24.822Z,11.00
2018-03-24T07:11:52.987Z,7.97
2018-03-24T07:14:21.158Z,7.57
2018-03-24T07:16:50.118Z,10.40
2018-03-24T07:19:18.268Z,9.37
2018-03-24T07:21:46.431Z,9.53
2018-03-24T07:24:14.610Z,8.67
2018-03-24T07:26:42.769Z,11.00
2018-03-24T07:29:10.939Z,10.13
2018-03-24T07:31:39.142Z,12.83
2018-03-24T07:34:07.304Z,8.93
2018-03-24T07:36:35.476Z,11.83
2018-03-24T07:39:03.670Z,10.40
2018-03-24T07:41:31.833Z,12.33
2018-03-24T07:44:00.010Z,12.33
2018-03-24T07:46:28.206Z,16.33
2018-03-24T07:48:56.387Z,10.13
2018-03-24T07:51:24.583Z,10.07
2018-03-24T07:53:53.524Z,11.73
2018-03-24T07:56:21.692Z,13.27
2018-03-24T07:58:49.882Z,12.90
2018-03-24T08:01:18.073Z,13.10
2018-03-24T08:03:46.243Z,15.60
2018-03-24T08:06:14.419Z,18.53
2018-03-24T08:08:42.588Z,12.93
2018-03-24T08:11:10.754Z,8.77
2018-03-24T08:13:38.914Z,12.33
2018-03-24T08:16:07.071Z,8.87
2018-03-24T08:18:35.231Z,11.03
2018-03-24T08:21:03.392Z,10.83
2018-03-24T08:23:32.323Z,12.00
2018-03-24T08:26:00.558Z,10.40
2018-03-24T08:28:28.727Z,12.63
2018-03-24T08:30:56.908Z,13.27
2018-03-24T08:33:25.851Z,15.87
2018-03-24T08:35:54.007Z,13.70
2018-03-24T08:38:22.220Z,14.73
2018-03-24T08:40:50.343Z,17.33
2018-03-24T08:43:18.520Z,15.20
2018-03-24T08:45:46.700Z,15.67
2018-03-24T08:48:14.871Z,17.37
2018-03-24T08:50:43.054Z,17.90
2018-03-24T08:53:11.230Z,17.17
2018-03-24T08:55:39.417Z,16.60
2018-03-24T08:58:07.611Z,13.10
2018-03-24T09:00:35.774Z,17.10
2018-03-24T09:03:03.926Z,15.73
2018-03-24T09:05:32.093Z,16.87
2018-03-24T09:08:00.257Z,17.80
2018-03-24T09:10:29.199Z,16.03
2018-03-24T09:12:57.387Z,15.17
2018-03-24T09:15:25.574Z,15.40
2018-03-24T09:17:53.750Z,14.77
2018-03-24T09:20:21.927Z,14.03
2018-03-24T09:22:50.097Z,12.53
2018-03-24T09:25:18.266Z,14.03
2018-03-24T09:27:46.446Z,17.13
2018-03-24T09:30:14.649Z,15.47
2018-03-24T09:32:43.618Z,20.00
2018-03-24T09:35:11.798Z,18.87
2018-03-24T09:37:40.738Z,19.73
2018-03-24T09:40:08.898Z,19.47
2018-03-24T09:42:37.087Z,15.10
2018-03-24T09:45:05.278Z,13.43
2018-03-24T09:47:33.461Z,17.67
2018-03-24T09:50:01.640Z,15.50
2018-03-24T09:52:29.814Z,14.60
2018-03-24T09:54:57.980Z,14.50
2018-03-24T09:57:26.163Z,14.07
2018-03-24T09:59:54.342Z,12.40
2018-03-24T10:02:22.512Z,15.40
2018-03-24T10:04:50.702Z,12.20
2018-03-24T10:07:18.870Z,20.17
2018-03-24T10:09:47.074Z,14.33
2018-03-24T10:12:16.010Z,12.27
2018-03-24T10:14:44.179Z,13.63
2018-03-24T10:17:12.358Z,10.43
2018-03-24T10:19:40.543Z,13.27
2018-03-24T10:25:41.202Z,12.00
2018-03-24T10:28:09.370Z,10.80
2018-03-24T10:30:37.577Z,12.73
2018-03-24T10:33:05.747Z,13.40
2018-03-24T10:35:33.929Z,11.33
2018-03-24T10:38:02.878Z,12.83
2018-03-24T10:40:31.053Z,9.73
2018-03-24T10:43:04.683Z,11.80
2018-03-24T10:45:32.874Z,14.17
2018-03-24T10:48:01.057Z,11.73
2018-03-24T10:50:30.016Z,12.57
2018-03-24T10:52:58.193Z,14.40
2018-03-24T10:55:26.386Z,11.77
2018-03-24T10:57:54.641Z,12.93
2018-03-24T11:00:28.390Z,12.83
2018-03-24T11:02:57.331Z,12.50
2018-03-24T11:05:25.509Z,12.80
2018-03-24T11:07:53.687Z,13.20
2018-03-24T11:10:21.862Z,12.73
2018-03-24T11:12:50.034Z,13.73
2018-03-24T11:15:18.218Z,13.03
2018-03-24T11:17:46.384Z,10.90
2018-03-24T11:20:14.561Z,12.63
2018-03-24T11:22:42.746Z,14.20
2018-03-24T11:25:10.919Z,12.07
2018-03-24T11:27:40.596Z,15.70
2018-03-24T11:30:08.779Z,12.87
2018-03-24T11:32:36.946Z,12.33
2018-03-24T11:35:05.115Z,14.10
2018-03-24T11:37:33.291Z,13.70
2018-03-24T11:40:01.483Z,12.57
2018-03-24T11:42:29.654Z,14.33
2018-03-24T11:44:57.884Z,12.90
2018-03-24T11:47:26.015Z,14.40
2018-03-24T11:49:54.199Z,12.70
2018-03-24T11:52:22.378Z,12.60
2018-03-24T11:54:50.546Z,13.80
2018-03-24T11:57:20.225Z,14.50
2018-03-24T11:59:48.397Z,14.90
2018-03-24T12:02:16.567Z,12.67
2018-03-24T12:04:44.747Z,12.77
2018-03-24T12:07:12.926Z,12.40
2018-03-24T12:09:41.098Z,15.10
2018-03-24T12:12:09.375Z,14.10
2018-03-24T12:14:37.543Z,17.73
2018-03-24T12:17:05.731Z,17.43
2018-03-24T12:19:33.906Z,17.10
2018-03-24T12:22:02.074Z,20.70
2018-03-24T12:24:30.256Z,15.80
2018-03-24T12:26:58.436Z,20.60
2018-03-24T12:29:26.606Z,20.87
2018-03-24T12:31:54.790Z,21.17
2018-03-24T12:34:22.970Z,29.43
2018-03-24T12:36:51.956Z,27.83
2018-03-24T12:39:20.134Z,30.50
2018-03-24T12:41:48.311Z,30.93
2018-03-24T12:44:16.492Z,26.07
2018-03-24T12:46:44.667Z,30.27
2018-03-24T12:49:12.847Z,28.37
2018-03-24T12:51:41.033Z,28.33
2018-03-24T12:54:09.998Z,31.00
2018-03-24T12:56:38.198Z,30.73
2018-03-24T12:59:06.367Z,31.57
2018-03-24T13:01:34.590Z,28.07
2018-03-24T13:04:02.773Z,26.77
2018-03-24T13:06:30.947Z,30.50
2018-03-24T13:08:59.128Z,27.97
2018-03-24T13:11:27.302Z,25.27
2018-03-24T13:13:55.541Z,28.73
2018-03-24T13:16:23.698Z,30.30
2018-03-24T13:18:51.871Z,34.20
2018-03-24T13:21:20.822Z,29.30
2018-03-24T13:23:49.010Z,27.00
2018-03-24T13:26:17.184Z,31.23
2018-03-24T13:28:45.367Z,34.83
2018-03-24T13:31:13.573Z,32.53
2018-03-24T13:33:42.515Z,29.10
2018-03-24T13:36:10.697Z,28.70
2018-03-24T13:38:38.874Z,34.00
2018-03-24T13:41:07.815Z,34.30
2018-03-24T13:43:36.758Z,32.70
2018-03-24T13:46:04.938Z,28.30
2018-03-24T13:48:33.122Z,29.23
2018-03-24T13:51:01.298Z,30.20
2018-03-24T13:53:30.268Z,27.03
2018-03-24T13:55:58.489Z,26.40
2018-03-24T13:58:27.454Z,28.57
2018-03-24T14:00:55.623Z,30.13
2018-03-24T14:03:23.826Z,27.50
2018-03-24T14:05:52.006Z,32.70
2018-03-24T14:08:21.022Z,27.60
2018-03-24T14:10:49.979Z,28.63
2018-03-24T14:13:18.184Z,25.37
2018-03-24T14:15:47.129Z,28.47
2018-03-24T14:18:15.310Z,26.30
2018-03-24T14:20:43.509Z,25.07
2018-03-24T14:23:12.457Z,27.20
2018-03-24T14:25:40.630Z,25.60
2018-03-24T14:28:08.813Z,26.30
2018-03-24T14:30:36.990Z,25.40
2018-03-24T14:33:05.163Z,26.90
2018-03-24T14:35:33.357Z,27.10
2018-03-24T14:38:01.590Z,27.90
2018-03-24T14:40:30.539Z,25.70
2018-03-24T14:42:58.687Z,27.53
2018-03-24T14:45:27.627Z,26.17
2018-03-24T14:47:56.603Z,26.40
2018-03-24T14:50:24.771Z,28.80
2018-03-24T14:52:52.939Z,30.07
2018-03-24T14:55:22.105Z,28.10
2018-03-24T14:57:50.294Z,24.37
2018-03-24T15:00:18.486Z,25.50
2018-03-24T15:02:46.674Z,27.57
2018-03-24T15:05:15.633Z,26.70
2018-03-24T15:07:44.590Z,25.60
2018-03-24T15:10:12.825Z,28.73
2018-03-24T15:12:41.025Z,25.27
2018-03-24T15:15:09.967Z,28.67
2018-03-24T15:17:38.154Z,25.67
2018-03-24T15:20:06.351Z,28.20
2018-03-24T15:22:34.528Z,25.40
2018-03-24T15:25:02.703Z,25.63
2018-03-24T15:27:31.645Z,28.67
2018-03-24T15:30:17.594Z,21.67
2018-03-24T15:32:53.975Z,25.47
2018-03-24T15:38:22.602Z,25.90
2018-03-24T15:40:50.802Z,22.03
2018-03-24T15:43:19.010Z,26.10
2018-03-24T15:45:48.027Z,27.77
2018-03-24T15:48:16.231Z,32.03
2018-03-24T15:50:44.402Z,25.80
2018-03-24T15:53:12.574Z,26.30
2018-03-24T15:55:40.762Z,28.87
2018-03-24T15:58:08.924Z,34.60
2018-03-24T16:00:37.087Z,27.63
2018-03-24T16:03:05.287Z,30.30
2018-03-24T16:05:33.450Z,30.10
2018-03-24T16:08:01.630Z,28.30
2018-03-24T16:10:29.814Z,24.73
2018-03-24T16:12:57.979Z,27.50
2018-03-24T16:15:26.148Z,33.13
2018-03-24T16:17:54.323Z,29.40
2018-03-24T16:20:22.503Z,29.00
2018-03-24T16:22:50.672Z,33.00
2018-03-24T16:25:18.842Z,36.33
2018-03-24T16:27:47.013Z,29.50
2018-03-24T16:30:15.179Z,34.83
2018-03-24T16:32:43.351Z,31.23
2018-03-24T16:35:11.542Z,33.70
2018-03-24T16:37:39.703Z,30.13
2018-03-24T16:40:07.863Z,31.20
2018-03-24T16:42:36.797Z,35.80
2018-03-24T16:45:04.994Z,33.67
2018-03-24T16:47:33.167Z,41.57
2018-03-24T16:50:01.357Z,37.80
2018-03-24T16:52:29.519Z,33.77
2018-03-24T16:54:57.762Z,32.83
2018-03-24T16:57:25.936Z,34.67
2018-03-24T16:59:54.107Z,36.83
2018-03-24T17:02:22.304Z,30.97
2018-03-24T17:04:51.262Z,33.67
2018-03-24T17:07:19.439Z,36.50
2018-03-24T17:09:47.642Z,34.13
2018-03-24T17:12:15.814Z,37.23
2018-03-24T17:14:43.980Z,34.20
2018-03-24T17:17:12.187Z,33.33
2018-03-24T17:19:40.376Z,36.70
2018-03-24T17:22:09.315Z,44.20
2018-03-24T17:24:37.491Z,38.87
2018-03-24T17:27:05.674Z,38.40
2018-03-24T17:29:33.921Z,38.37
2018-03-24T17:32:02.087Z,40.27
2018-03-24T17:34:31.021Z,37.30
2018-03-24T17:36:59.192Z,41.67
2018-03-24T17:39:27.533Z,35.63
2018-03-24T17:41:56.462Z,38.80
2018-03-24T17:44:24.675Z,36.70
2018-03-24T17:46:53.629Z,42.53
2018-03-24T17:49:21.810Z,37.77
2018-03-24T17:51:49.978Z,35.30
2018-03-24T17:54:18.200Z,37.80
2018-03-24T17:56:47.147Z,31.10
2018-03-24T17:59:15.312Z,33.70
2018-03-24T18:01:43.498Z,27.80
2018-03-24T18:04:11.699Z,27.30
2018-03-24T18:06:39.870Z,26.90
2018-03-24T18:09:08.059Z,26.57
2018-03-24T18:11:36.249Z,26.60
2018-03-24T18:14:05.189Z,26.67
2018-03-24T18:16:33.360Z,31.20
2018-03-24T18:19:01.531Z,27.23
2018-03-24T18:21:29.710Z,23.93
2018-03-24T18:23:57.882Z,23.43
2018-03-24T18:26:26.052Z,25.20
2018-03-24T18:28:54.376Z,25.70
2018-03-24T18:31:22.554Z,27.27
2018-03-24T18:33:51.495Z,28.23
2018-03-24T18:36:19.670Z,24.50
2018-03-24T18:38:47.892Z,26.57
2018-03-24T18:41:16.071Z,20.97
2018-03-24T18:43:45.026Z,26.00
2018-03-24T18:46:13.203Z,23.07
2018-03-24T18:48:41.378Z,23.30
2018-03-24T18:51:10.366Z,25.10
2018-03-24T18:53:38.540Z,25.90
2018-03-24T18:56:06.719Z,24.30
2018-03-24T18:58:34.922Z,24.83
2018-03-24T19:01:03.097Z,25.67
2018-03-24T19:03:31.275Z,22.37
2018-03-24T19:05:59.486Z,23.97
2018-03-24T19:08:27.685Z,24.07
2018-03-24T19:10:55.920Z,22.73
2018-03-24T19:13:24.863Z,21.37
2018-03-24T19:15:53.030Z,22.17
2018-03-24T19:18:21.194Z,23.97
2018-03-24T19:20:49.355Z,19.37
2018-03-24T19:23:17.533Z,24.07
2018-03-24T19:25:45.728Z,23.90
2018-03-24T19:28:13.911Z,24.90
2018-03-24T19:30:42.880Z,29.00
2018-03-24T19:33:11.046Z,25.60
2018-03-24T19:35:39.239Z,25.10
2018-03-24T19:38:07.420Z,32.67
2018-03-24T19:40:35.596Z,30.90
2018-03-24T19:43:03.766Z,32.87
2018-03-24T19:45:31.932Z,33.07
2018-03-24T19:48:00.117Z,32.23
2018-03-24T19:50:28.336Z,33.70
2018-03-24T19:52:56.499Z,38.20
2018-03-24T19:55:24.667Z,35.90
2018-03-24T19:57:53.646Z,33.90
2018-03-24T20:00:22.611Z,32.60
2018-03-24T20:02:50.792Z,30.47
2018-03-24T20:05:18.962Z,41.57
2018-03-24T20:07:47.152Z,42.07
2018-03-24T20:10:15.332Z,41.77
2018-03-24T20:12:43.506Z,43.17
2018-03-24T20:15:11.688Z,41.90
2018-03-24T20:17:40.638Z,39.30
2018-03-24T20:20:08.817Z,38.10
2018-03-24T20:22:37.811Z,41.10
2018-03-24T20:25:06.032Z,46.07
2018-03-24T20:27:35.038Z,42.17
2018-03-24T20:30:03.254Z,44.70
2018-03-24T20:32:31.447Z,46.77
2018-03-24T20:34:59.607Z,39.30
2018-03-24T20:37:27.799Z,40.40
2018-03-24T20:39:56.039Z,42.97
2018-03-24T20:42:24.276Z,40.27
2018-03-24T20:44:52.526Z,40.03
2018-03-24T20:47:20.675Z,40.10
2018-03-24T20:49:49.763Z,41.10
2018-03-24T20:52:18.015Z,40.73
2018-03-24T20:54:50.016Z,36.90
2018-03-24T20:57:18.578Z,39.37
2018-03-24T20:59:51.247Z,38.13
2018-03-24T21:02:19.431Z,39.20
2018-03-24T21:04:50.755Z,36.97
2018-03-24T21:07:20.400Z,37.60
2018-03-24T21:09:53.996Z,41.70
2018-03-24T21:12:22.393Z,41.17
2018-03-24T21:14:53.627Z,40.43
2018-03-24T21:17:22.234Z,38.83
2018-03-24T21:19:51.795Z,38.77
2018-03-24T21:22:19.994Z,36.00
2018-03-24T21:24:48.174Z,34.70
2018-03-24T21:27:16.382Z,36.00
2018-03-24T21:29:44.551Z,40.83
2018-03-24T21:32:12.740Z,40.47
2018-03-24T21:34:41.691Z,38.43
2018-03-24T21:37:09.871Z,35.23
2018-03-24T21:39:38.037Z,33.73
2018-03-24T21:42:06.214Z,34.23
2018-03-24T21:44:34.425Z,36.67
2018-03-24T21:47:02.611Z,29.73
2018-03-24T21:49:31.574Z,35.67
2018-03-24T21:51:59.764Z,31.80
2018-03-24T21:54:28.006Z,34.83
2018-03-24T21:56:56.278Z,30.77
2018-03-24T21:59:24.454Z,29.00
2018-03-24T22:01:52.651Z,30.63
2018-03-24T22:04:20.820Z,35.67
2018-03-24T22:06:49.006Z,31.97
2018-03-24T22:09:17.177Z,33.00
2018-03-24T22:11:45.375Z,35.30
2018-03-24T22:14:14.363Z,38.43
2018-03-24T22:16:42.537Z,33.87
2018-03-24T22:19:10.725Z,34.03
2018-03-24T22:21:39.672Z,36.80
2018-03-24T22:24:07.869Z,38.17
2018-03-24T22:26:36.063Z,35.83
2018-03-24T22:29:05.017Z,34.00
2018-03-24T22:31:33.197Z,32.30
2018-03-24T22:34:01.404Z,36.30
2018-03-24T22:36:29.587Z,33.93
2018-03-24T22:38:58.533Z,35.40
2018-03-24T22:41:26.705Z,40.67
2018-03-24T22:43:54.877Z,36.37
2018-03-24T22:46:23.085Z,37.00
2018-03-24T22:48:51.254Z,35.73
2018-03-24T22:51:19.460Z,31.57
2018-03-24T22:53:47.629Z,34.33
2018-03-24T22:56:16.582Z,35.40
2018-03-24T22:58:44.849Z,32.03
2018-03-24T23:01:13.039Z,35.90
2018-03-24T23:03:41.238Z,34.77
2018-03-24T23:06:10.192Z,38.20
2018-03-24T23:08:38.389Z,33.93
2018-03-24T23:11:06.576Z,37.93
2018-03-24T23:13:34.780Z,35.43
2018-03-24T23:16:02.965Z,32.03
2018-03-24T23:18:31.147Z,35.70
2018-03-24T23:20:59.360Z,38.57
2018-03-24T23:23:27.560Z,33.77
2018-03-24T23:25:56.498Z,36.90
2018-03-24T23:28:24.692Z,34.70
2018-03-24T23:30:52.867Z,33.67
2018-03-24T23:33:21.046Z,37.87
2018-03-24T23:35:49.256Z,35.97
2018-03-24T23:38:18.190Z,38.67
2018-03-24T23:40:46.390Z,37.07
2018-03-24T23:43:14.583Z,31.97
2018-03-24T23:45:42.761Z,34.70
2018-03-24T23:48:10.925Z,34.17
2018-03-24T23:50:39.235Z,39.20
2018-03-24T23:53:08.165Z,40.57
2018-03-24T23:55:36.372Z,38.03
2018-03-24T23:58:04.553Z,40.03
